createdAt,value
2022-08-21T00:02:24.100Z,17.61
2022-08-21T00:04:55.900Z,17.59
2022-08-21T00:07:24.041Z,17.46
2022-08-21T00:09:51.573Z,17.27
2022-08-21T00:12:17.748Z,17.18
2022-08-21T00:14:43.943Z,17.08
2022-08-21T00:17:12.752Z,17.05
2022-08-21T00:19:38.925Z,17.10
2022-08-21T00:22:05.107Z,17.18
2022-08-21T00:24:31.271Z,17.17
2022-08-21T00:26:57.447Z,17.01
2022-08-21T00:29:23.634Z,16.95
2022-08-21T00:31:49.828Z,16.94
2022-08-21T00:34:16.389Z,16.83
2022-08-21T00:36:42.582Z,16.81
2022-08-21T00:39:08.738Z,16.85
2022-08-21T00:41:37.791Z,16.83
2022-08-21T00:44:05.089Z,16.90
2022-08-21T00:46:31.247Z,16.89
2022-08-21T00:48:58.881Z,16.85
2022-08-21T00:51:25.431Z,16.90
2022-08-21T00:53:53.675Z,16.71
2022-08-21T00:56:20.000Z,16.70
2022-08-21T00:58:46.274Z,16.66
2022-08-21T01:01:12.466Z,16.52
2022-08-21T01:03:38.721Z,16.56
2022-08-21T01:06:10.290Z,16.49
2022-08-21T01:08:36.466Z,16.43
2022-08-21T01:11:03.260Z,16.41
2022-08-21T01:13:29.833Z,16.39
2022-08-21T01:15:58.185Z,16.30
2022-08-21T01:18:24.357Z,16.24
2022-08-21T01:20:51.989Z,16.26
2022-08-21T01:23:19.112Z,16.23
2022-08-21T01:25:45.267Z,16.19
2022-08-21T01:28:11.438Z,16.14
2022-08-21T01:30:37.639Z,16.18
2022-08-21T01:33:03.815Z,16.26
2022-08-21T01:35:29.973Z,16.17
2022-08-21T01:37:56.142Z,16.19
2022-08-21T01:40:22.346Z,16.00
2022-08-21T01:42:48.574Z,15.89
2022-08-21T01:45:14.776Z,15.83
2022-08-21T01:47:40.963Z,15.86
2022-08-21T01:50:07.171Z,15.75
2022-08-21T01:52:33.354Z,15.84
2022-08-21T01:54:59.563Z,15.83
2022-08-21T01:57:26.074Z,15.83
2022-08-21T01:59:52.626Z,15.66
2022-08-21T02:02:18.821Z,15.59
2022-08-21T02:04:44.969Z,15.49
2022-08-21T02:07:11.170Z,15.40
2022-08-21T02:09:37.334Z,15.36
2022-08-21T02:12:06.475Z,15.37
2022-08-21T02:14:33.120Z,15.37
2022-08-21T02:17:09.038Z,15.41
2022-08-21T02:19:39.695Z,15.32
2022-08-21T02:22:07.049Z,15.20
2022-08-21T02:24:33.608Z,15.18
2022-08-21T02:26:59.811Z,15.16
2022-08-21T02:29:25.971Z,15.11
2022-08-21T02:31:52.140Z,14.98
2022-08-21T02:34:18.333Z,15.09
2022-08-21T02:36:44.511Z,15.01
2022-08-21T02:39:27.040Z,14.97
2022-08-21T02:41:53.759Z,15.00
2022-08-21T02:44:20.065Z,14.96
2022-08-21T02:46:46.291Z,14.96
2022-08-21T02:49:12.485Z,14.82
2022-08-21T02:51:38.644Z,14.82
2022-08-21T02:54:04.792Z,14.69
2022-08-21T02:56:31.649Z,14.58
2022-08-21T02:58:58.827Z,14.57
2022-08-21T03:01:25.032Z,14.51
2022-08-21T03:03:51.234Z,14.48
2022-08-21T03:06:17.401Z,14.57
2022-08-21T03:08:43.562Z,14.49
2022-08-21T03:11:10.205Z,14.50
2022-08-21T03:13:37.011Z,14.45
2022-08-21T03:16:04.229Z,14.48
2022-08-21T03:18:31.541Z,14.42
2022-08-21T03:20:57.695Z,14.34
2022-08-21T03:23:23.883Z,14.34
2022-08-21T03:25:50.045Z,14.35
2022-08-21T03:28:16.212Z,14.31
2022-08-21T03:30:42.385Z,14.33
2022-08-21T03:33:08.581Z,14.22
2022-08-21T03:35:38.554Z,14.12
2022-08-21T03:38:04.719Z,14.03
2022-08-21T03:40:30.891Z,14.14
2022-08-21T03:42:57.171Z,14.20
2022-08-21T03:45:23.443Z,14.17
2022-08-21T03:47:49.604Z,14.17
2022-08-21T03:50:15.786Z,14.23
2022-08-21T03:52:41.947Z,14.20
2022-08-21T03:55:08.111Z,14.18
2022-08-21T03:57:34.288Z,14.11
2022-08-21T04:00:00.535Z,13.98
2022-08-21T04:02:26.695Z,13.86
2022-08-21T04:04:52.884Z,13.78
2022-08-21T04:07:19.052Z,13.87
2022-08-21T04:09:45.274Z,13.94
2022-08-21T04:12:11.451Z,13.95
2022-08-21T04:14:37.682Z,13.89
2022-08-21T04:17:03.873Z,13.87
2022-08-21T04:19:30.089Z,13.82
2022-08-21T04:21:57.119Z,13.83
2022-08-21T04:24:23.317Z,13.82
2022-08-21T04:26:49.523Z,13.90
2022-08-21T04:29:15.733Z,13.89
2022-08-21T04:31:41.931Z,13.85
2022-08-21T04:34:08.124Z,13.80
2022-08-21T04:36:34.282Z,13.82
2022-08-21T04:39:00.463Z,13.79
2022-08-21T04:41:29.688Z,13.77
2022-08-21T04:43:55.884Z,13.86
2022-08-21T04:46:22.072Z,13.78
2022-08-21T04:48:48.241Z,13.72
2022-08-21T04:51:14.401Z,13.66
2022-08-21T04:53:40.578Z,13.61
2022-08-21T04:56:06.751Z,13.61
2022-08-21T04:58:32.957Z,13.62
2022-08-21T05:00:59.117Z,13.69
2022-08-21T05:03:25.260Z,13.81
2022-08-21T05:05:51.457Z,13.86
2022-08-21T05:08:17.650Z,13.99
2022-08-21T05:10:43.795Z,14.02
2022-08-21T05:13:09.973Z,14.02
2022-08-21T05:15:36.132Z,14.17
2022-08-21T05:18:02.337Z,14.12
2022-08-21T05:20:28.519Z,14.09
2022-08-21T05:22:54.718Z,14.18
2022-08-21T05:25:22.135Z,14.23
2022-08-21T05:27:48.589Z,14.25
2022-08-21T05:30:18.249Z,14.30
2022-08-21T05:32:44.427Z,14.39
2022-08-21T05:35:10.588Z,14.43
2022-08-21T05:37:36.781Z,14.56
2022-08-21T05:40:20.479Z,14.69
2022-08-21T05:42:54.507Z,14.80
2022-08-21T05:45:41.351Z,14.92
2022-08-21T05:48:08.649Z,15.07
2022-08-21T05:50:34.791Z,15.26
2022-08-21T05:53:07.259Z,15.51
2022-08-21T05:55:34.111Z,15.81
2022-08-21T05:58:00.288Z,16.11
2022-08-21T06:00:26.493Z,16.35
2022-08-21T06:02:52.662Z,16.57
2022-08-21T06:05:21.136Z,16.75
2022-08-21T06:08:02.705Z,16.94
2022-08-21T06:10:28.934Z,17.10
2022-08-21T06:12:58.100Z,17.28
2022-08-21T06:15:24.424Z,17.48
2022-08-21T06:17:50.601Z,17.73
2022-08-21T06:20:16.806Z,17.98
2022-08-21T06:22:42.956Z,18.21
2022-08-21T06:25:09.131Z,18.45
2022-08-21T06:27:35.290Z,18.63
2022-08-21T06:30:01.506Z,18.84
2022-08-21T06:32:27.666Z,19.06
2022-08-21T06:34:53.861Z,19.25
2022-08-21T06:37:20.045Z,19.36
2022-08-21T06:39:46.276Z,19.62
2022-08-21T06:42:12.480Z,19.85
2022-08-21T06:44:38.666Z,19.99
2022-08-21T06:47:04.860Z,20.08
2022-08-21T06:49:31.030Z,20.25
2022-08-21T06:51:59.606Z,20.34
2022-08-21T06:54:25.794Z,20.61
2022-08-21T06:56:51.976Z,20.76
2022-08-21T06:59:18.194Z,20.91
2022-08-21T07:01:44.417Z,21.03
2022-08-21T07:04:10.640Z,21.28
2022-08-21T07:06:36.819Z,21.36
2022-08-21T07:09:02.964Z,21.55
2022-08-21T07:11:29.149Z,21.78
2022-08-21T07:13:55.343Z,21.82
2022-08-21T07:16:21.531Z,22.02
2022-08-21T07:18:47.713Z,22.15
2022-08-21T07:21:13.869Z,22.24
2022-08-21T07:23:40.056Z,22.43
2022-08-21T07:26:06.217Z,22.39
2022-08-21T07:28:32.413Z,22.25
2022-08-21T07:30:58.646Z,22.41
2022-08-21T07:33:24.795Z,22.65
2022-08-21T07:35:50.987Z,22.86
2022-08-21T07:38:17.168Z,23.08
2022-08-21T07:40:43.367Z,23.16
2022-08-21T07:43:09.548Z,23.39
2022-08-21T07:45:35.756Z,23.66
2022-08-21T07:48:01.924Z,23.86
2022-08-21T07:50:28.090Z,23.98
2022-08-21T07:52:54.334Z,24.05
2022-08-21T07:55:20.580Z,24.26
2022-08-21T07:57:46.754Z,24.49
2022-08-21T08:00:12.914Z,24.75
2022-08-21T08:02:39.090Z,24.79
2022-08-21T08:05:05.268Z,25.00
2022-08-21T08:07:31.458Z,25.34
2022-08-21T08:09:57.660Z,25.84
2022-08-21T08:12:23.822Z,26.23
2022-08-21T08:14:49.966Z,26.69
2022-08-21T08:17:16.136Z,26.63
2022-08-21T08:19:42.298Z,26.56
2022-08-21T08:22:08.459Z,26.41
2022-08-21T08:24:34.649Z,26.25
2022-08-21T08:27:00.814Z,26.14
2022-08-21T08:29:27.016Z,25.88
2022-08-21T08:31:53.891Z,25.44
2022-08-21T08:34:25.227Z,24.87
2022-08-21T08:36:51.967Z,25.22
2022-08-21T08:39:26.578Z,25.27
2022-08-21T08:41:58.630Z,25.35
2022-08-21T08:44:24.987Z,25.64
2022-08-21T08:46:57.524Z,25.48
2022-08-21T08:49:23.807Z,25.33
2022-08-21T08:51:53.020Z,25.60
2022-08-21T08:54:19.573Z,25.56
2022-08-21T08:56:45.742Z,25.71
2022-08-21T08:59:11.912Z,25.97
2022-08-21T09:01:39.123Z,26.17
2022-08-21T09:04:05.508Z,26.28
2022-08-21T09:06:31.695Z,26.45
2022-08-21T09:08:57.905Z,26.04
2022-08-21T09:11:24.100Z,26.10
2022-08-21T09:13:50.303Z,26.16
2022-08-21T09:16:16.476Z,26.26
2022-08-21T09:18:42.632Z,26.04
2022-08-21T09:21:08.814Z,26.13
2022-08-21T09:23:35.010Z,26.20
2022-08-21T09:26:01.261Z,26.57
2022-08-21T09:28:27.433Z,26.63
2022-08-21T09:30:53.619Z,26.85
2022-08-21T09:33:19.805Z,27.17
2022-08-21T09:35:45.990Z,27.26
2022-08-21T09:38:12.178Z,27.18
2022-08-21T09:40:38.477Z,27.24
2022-08-21T09:43:04.704Z,27.32
2022-08-21T09:45:33.732Z,26.98
2022-08-21T09:48:00.409Z,26.96
2022-08-21T09:50:26.562Z,27.05
2022-08-21T09:52:54.614Z,27.14
2022-08-21T09:55:20.947Z,27.18
2022-08-21T09:57:50.495Z,27.41
2022-08-21T10:00:16.967Z,27.36
2022-08-21T10:02:43.151Z,27.72
2022-08-21T10:05:09.328Z,27.40
2022-08-21T10:07:35.547Z,27.63
2022-08-21T10:10:01.692Z,27.82
2022-08-21T10:12:27.883Z,27.67
2022-08-21T10:14:54.073Z,27.39
2022-08-21T10:17:20.221Z,27.73
2022-08-21T10:19:46.409Z,27.57
2022-08-21T10:22:12.569Z,27.53
2022-08-21T10:24:38.763Z,27.41
2022-08-21T10:27:07.618Z,27.48
2022-08-21T10:29:33.763Z,27.45
2022-08-21T10:31:59.934Z,27.74
2022-08-21T10:34:26.091Z,27.70
2022-08-21T10:36:52.254Z,27.92
2022-08-21T10:39:26.706Z,28.04
2022-08-21T10:42:02.141Z,28.34
2022-08-21T10:44:28.334Z,28.54
2022-08-21T10:46:54.496Z,28.33
2022-08-21T10:49:20.689Z,28.14
2022-08-21T10:51:46.849Z,28.02
2022-08-21T10:54:13.046Z,28.02
2022-08-21T10:56:39.204Z,28.24
2022-08-21T10:59:07.182Z,28.26
2022-08-21T11:01:33.347Z,28.20
2022-08-21T11:03:59.512Z,28.33
2022-08-21T11:06:26.808Z,28.24
2022-08-21T11:08:52.999Z,28.17
2022-08-21T11:11:19.337Z,28.30
2022-08-21T11:13:48.329Z,28.48
2022-08-21T11:16:14.504Z,28.61
2022-08-21T11:18:40.696Z,28.70
2022-08-21T11:21:06.881Z,28.65
2022-08-21T11:23:33.040Z,28.41
2022-08-21T11:25:59.189Z,28.54
2022-08-21T11:28:25.384Z,28.36
2022-08-21T11:30:51.584Z,28.12
2022-08-21T11:33:17.761Z,28.23
2022-08-21T11:35:43.967Z,28.03
2022-08-21T11:38:10.126Z,27.58
2022-08-21T11:40:36.288Z,27.90
2022-08-21T11:43:02.485Z,28.25
2022-08-21T11:45:28.833Z,28.44
2022-08-21T11:47:55.063Z,28.64
2022-08-21T11:50:34.333Z,28.65
2022-08-21T11:53:02.099Z,28.81
2022-08-21T11:55:28.275Z,28.81
2022-08-21T11:57:54.438Z,28.79
2022-08-21T12:00:20.635Z,29.14
2022-08-21T12:02:46.832Z,29.05
2022-08-21T12:05:13.014Z,29.13
2022-08-21T12:07:46.313Z,28.95
2022-08-21T12:10:12.492Z,28.78
2022-08-21T12:12:38.699Z,28.65
2022-08-21T12:15:04.896Z,29.02
2022-08-21T12:17:31.120Z,28.87
2022-08-21T12:19:57.280Z,28.85
2022-08-21T12:22:23.467Z,29.21
2022-08-21T12:24:52.587Z,29.15
2022-08-21T12:27:18.791Z,29.08
2022-08-21T12:29:44.962Z,29.07
2022-08-21T12:32:11.118Z,29.18
2022-08-21T12:34:37.307Z,29.19
2022-08-21T12:37:03.496Z,29.29
2022-08-21T12:39:29.717Z,29.42
2022-08-21T12:42:00.043Z,29.65
2022-08-21T12:44:27.938Z,29.27
2022-08-21T12:46:54.113Z,29.33
2022-08-21T12:49:20.327Z,29.30
2022-08-21T12:51:46.497Z,29.01
2022-08-21T12:54:12.699Z,29.26
2022-08-21T12:56:38.849Z,29.24
2022-08-21T12:59:05.037Z,29.25
2022-08-21T13:01:31.268Z,29.09
2022-08-21T13:04:04.180Z,29.18
2022-08-21T13:06:31.220Z,29.50
2022-08-21T13:08:57.381Z,29.37
2022-08-21T13:11:32.462Z,29.24
2022-08-21T13:14:02.857Z,29.30
2022-08-21T13:16:31.926Z,29.10
2022-08-21T13:18:58.239Z,29.07
2022-08-21T13:21:24.407Z,29.01
2022-08-21T13:23:50.631Z,29.31
2022-08-21T13:26:18.730Z,29.50
2022-08-21T13:28:45.143Z,29.71
2022-08-21T13:31:11.330Z,29.86
2022-08-21T13:33:37.983Z,29.85
2022-08-21T13:36:04.174Z,29.96
2022-08-21T13:38:30.358Z,29.71
2022-08-21T13:40:56.568Z,29.76
2022-08-21T13:43:22.750Z,29.87
2022-08-21T13:45:48.905Z,29.69
2022-08-21T13:48:15.096Z,29.88
2022-08-21T13:50:41.291Z,30.01
2022-08-21T13:53:07.491Z,30.19
2022-08-21T13:55:33.671Z,30.32
2022-08-21T13:57:59.832Z,30.25
2022-08-21T14:00:26.052Z,30.05
2022-08-21T14:02:52.301Z,29.88
2022-08-21T14:05:18.587Z,30.26
2022-08-21T14:07:44.750Z,29.93
2022-08-21T14:10:10.909Z,30.09
2022-08-21T14:12:37.103Z,29.97
2022-08-21T14:15:03.261Z,29.84
2022-08-21T14:17:33.437Z,29.91
2022-08-21T14:20:00.058Z,30.01
2022-08-21T14:22:26.321Z,29.90
2022-08-21T14:24:55.149Z,29.83
2022-08-21T14:27:21.472Z,29.69
2022-08-21T14:29:47.640Z,29.66
2022-08-21T14:32:24.395Z,29.50
2022-08-21T14:34:51.445Z,29.42
2022-08-21T14:37:18.355Z,29.70
2022-08-21T14:39:45.322Z,29.58
2022-08-21T14:42:11.623Z,29.76
2022-08-21T14:44:37.808Z,29.76
2022-08-21T14:47:03.951Z,29.74
2022-08-21T14:49:30.121Z,30.09
2022-08-21T14:51:56.382Z,30.00
2022-08-21T14:54:28.071Z,30.12
2022-08-21T14:56:56.968Z,29.98
2022-08-21T14:59:23.133Z,30.08
2022-08-21T15:01:49.381Z,30.26
2022-08-21T15:04:15.648Z,30.52
2022-08-21T15:06:41.840Z,30.62
2022-08-21T15:09:08.009Z,30.69
2022-08-21T15:11:41.804Z,30.80
2022-08-21T15:14:08.846Z,30.58
2022-08-21T15:16:35.010Z,30.46
2022-08-21T15:19:01.173Z,30.48
2022-08-21T15:21:27.509Z,30.56
2022-08-21T15:23:53.686Z,30.82
2022-08-21T15:26:19.890Z,30.64
2022-08-21T15:28:46.080Z,30.72
2022-08-21T15:31:12.269Z,30.48
2022-08-21T15:33:38.462Z,30.29
2022-08-21T15:36:04.669Z,30.38
2022-08-21T15:38:30.829Z,30.46
2022-08-21T15:40:57.000Z,30.48
2022-08-21T15:43:29.981Z,30.47
2022-08-21T15:45:56.798Z,30.69
2022-08-21T15:48:22.988Z,30.68
2022-08-21T15:50:49.173Z,30.86
2022-08-21T15:53:15.355Z,30.99
2022-08-21T15:55:41.520Z,31.23
2022-08-21T15:58:07.737Z,31.37
2022-08-21T16:00:39.720Z,31.03
2022-08-21T16:03:05.888Z,30.91
2022-08-21T16:05:32.086Z,30.57
2022-08-21T16:07:58.243Z,30.41
2022-08-21T16:10:28.106Z,30.48
2022-08-21T16:12:56.428Z,30.41
2022-08-21T16:15:22.640Z,30.30
2022-08-21T16:17:48.856Z,30.16
2022-08-21T16:20:15.002Z,30.08
2022-08-21T16:22:44.787Z,29.88
2022-08-21T16:25:11.285Z,29.73
2022-08-21T16:27:37.423Z,29.45
2022-08-21T16:30:05.951Z,29.23
2022-08-21T16:32:32.105Z,29.11
2022-08-21T16:34:58.302Z,29.07
2022-08-21T16:37:24.735Z,29.08
2022-08-21T16:39:51.047Z,28.85
2022-08-21T16:42:20.423Z,28.68
2022-08-21T16:44:49.052Z,28.41
2022-08-21T16:47:26.637Z,28.26
2022-08-21T16:49:53.659Z,28.13
2022-08-21T16:52:19.869Z,28.03
2022-08-21T16:54:46.069Z,27.92
2022-08-21T16:57:12.233Z,27.72
2022-08-21T16:59:38.443Z,27.55
2022-08-21T17:02:04.611Z,27.39
2022-08-21T17:04:30.774Z,27.22
2022-08-21T17:06:56.979Z,27.14
2022-08-21T17:09:23.176Z,27.02
2022-08-21T17:11:49.405Z,26.94
2022-08-21T17:14:15.588Z,26.89
2022-08-21T17:16:41.811Z,26.77
2022-08-21T17:19:08.353Z,26.69
2022-08-21T17:21:34.609Z,26.66
2022-08-21T17:24:00.832Z,26.70
2022-08-21T17:26:26.988Z,26.68
2022-08-21T17:28:54.989Z,26.71
2022-08-21T17:31:21.389Z,26.67
2022-08-21T17:33:47.951Z,26.59
2022-08-21T17:36:14.358Z,26.54
2022-08-21T17:38:40.543Z,26.46
2022-08-21T17:41:06.708Z,26.41
2022-08-21T17:43:32.903Z,26.47
2022-08-21T17:46:02.473Z,26.41
2022-08-21T17:48:28.630Z,26.35
2022-08-21T17:50:54.783Z,26.33
2022-08-21T17:53:20.959Z,26.24
2022-08-21T17:55:47.172Z,26.19
2022-08-21T17:58:13.361Z,26.04
2022-08-21T18:00:39.551Z,26.05
2022-08-21T18:03:05.824Z,25.89
2022-08-21T18:05:32.128Z,25.81
2022-08-21T18:07:58.276Z,25.88
2022-08-21T18:10:24.477Z,25.78
2022-08-21T18:12:50.896Z,25.65
2022-08-21T18:15:17.054Z,25.48
2022-08-21T18:17:43.224Z,25.39
2022-08-21T18:20:09.403Z,25.19
2022-08-21T18:22:35.562Z,25.03
2022-08-21T18:25:01.757Z,24.93
2022-08-21T18:27:29.683Z,24.85
2022-08-21T18:29:56.063Z,24.70
2022-08-21T18:32:31.002Z,24.62
2022-08-21T18:34:58.136Z,24.54
2022-08-21T18:37:24.385Z,24.46
2022-08-21T18:39:50.602Z,24.39
2022-08-21T18:42:17.004Z,24.23
2022-08-21T18:44:43.168Z,23.97
2022-08-21T18:47:09.340Z,23.75
2022-08-21T18:49:35.729Z,23.64
2022-08-21T18:52:01.899Z,23.37
2022-08-21T18:54:29.540Z,23.19
2022-08-21T18:56:55.720Z,23.06
2022-08-21T18:59:26.454Z,22.84
2022-08-21T19:01:53.103Z,22.68
2022-08-21T19:04:43.252Z,22.52
2022-08-21T19:07:05.420Z,22.36
2022-08-21T19:09:31.595Z,22.27
2022-08-21T19:11:57.747Z,22.20
2022-08-21T19:14:23.919Z,22.18
2022-08-21T19:16:51.189Z,21.98
2022-08-21T19:19:17.361Z,21.90
2022-08-21T19:21:43.557Z,21.86
2022-08-21T19:26:56.958Z,21.65
2022-08-21T19:29:34.887Z,21.58
2022-08-21T19:32:01.533Z,21.47
2022-08-21T19:34:28.219Z,21.39
2022-08-21T19:36:54.426Z,21.29
2022-08-21T19:39:20.610Z,21.25
2022-08-21T19:41:46.809Z,21.18
2022-08-21T19:44:17.405Z,21.15
2022-08-21T19:46:45.627Z,21.01
2022-08-21T19:49:11.838Z,20.94
2022-08-21T19:51:38.047Z,20.87
2022-08-21T19:54:04.210Z,20.82
2022-08-21T19:56:30.410Z,20.77
2022-08-21T19:58:56.585Z,20.71
2022-08-21T20:01:22.782Z,20.61
2022-08-21T20:03:53.974Z,20.52
2022-08-21T20:06:20.466Z,20.51
2022-08-21T20:08:46.662Z,20.49
2022-08-21T20:11:12.864Z,20.44
2022-08-21T20:13:39.045Z,20.40
2022-08-21T20:16:09.540Z,20.40
2022-08-21T20:18:35.777Z,20.32
2022-08-21T20:21:02.045Z,20.18
2022-08-21T20:23:30.968Z,20.12
2022-08-21T20:26:00.364Z,20.01
2022-08-21T20:28:27.437Z,20.05
2022-08-21T20:30:54.620Z,20.01
2022-08-21T20:33:20.827Z,19.96
2022-08-21T20:35:46.986Z,19.95
2022-08-21T20:38:13.380Z,19.90
2022-08-21T20:40:39.713Z,19.87
2022-08-21T20:43:06.322Z,19.81
2022-08-21T20:54:02.527Z,19.64
2022-08-21T21:02:03.591Z,19.64
2022-08-21T21:04:40.885Z,19.52
2022-08-21T21:10:13.260Z,19.29
2022-08-21T21:12:40.422Z,19.22
2022-08-21T21:15:06.706Z,19.13
2022-08-21T21:17:33.922Z,19.07
2022-08-21T21:20:00.263Z,19.05
2022-08-21T21:22:26.407Z,19.06
2022-08-21T21:24:52.612Z,19.04
2022-08-21T21:27:18.833Z,19.04
2022-08-21T21:29:45.015Z,18.97
2022-08-21T21:32:18.095Z,18.92
2022-08-21T21:34:44.742Z,18.94
2022-08-21T21:37:11.020Z,18.85
2022-08-21T21:39:38.201Z,18.83
2022-08-21T21:42:05.865Z,18.80
2022-08-21T21:44:34.158Z,18.81
2022-08-21T21:47:00.353Z,18.82
2022-08-21T21:49:26.943Z,18.85
2022-08-21T21:52:00.058Z,18.74
2022-08-21T21:54:26.580Z,18.73
2022-08-21T21:56:52.766Z,18.75
2022-08-21T21:59:18.948Z,18.77
2022-08-21T22:01:48.599Z,18.63
2022-08-21T22:04:17.049Z,18.52
2022-08-21T22:06:43.515Z,18.48
2022-08-21T22:09:20.888Z,18.54
2022-08-21T22:12:07.618Z,18.44
2022-08-21T22:14:33.837Z,18.44
2022-08-21T22:17:00.002Z,18.48
2022-08-21T22:19:26.189Z,18.49
2022-08-21T22:21:52.347Z,18.46
2022-08-21T22:24:18.643Z,18.38
2022-08-21T22:26:44.836Z,18.28
2022-08-21T22:29:11.018Z,18.27
2022-08-21T22:31:38.430Z,18.13
2022-08-21T22:34:04.704Z,18.15
2022-08-21T22:36:30.854Z,18.14
2022-08-21T22:38:57.150Z,18.04
2022-08-21T22:41:23.334Z,18.00
2022-08-21T22:43:54.087Z,18.05
2022-08-21T22:46:20.256Z,17.82
2022-08-21T22:48:46.677Z,17.73
2022-08-21T22:51:12.964Z,17.65
2022-08-21T22:53:39.181Z,17.63
2022-08-21T22:56:05.411Z,17.60
2022-08-21T22:58:31.565Z,17.61
2022-08-21T23:00:57.789Z,17.53
2022-08-21T23:03:24.229Z,17.46
2022-08-21T23:05:50.394Z,17.55
2022-08-21T23:08:23.907Z,17.47
2022-08-21T23:10:50.604Z,17.37
2022-08-21T23:13:16.897Z,17.32
2022-08-21T23:15:45.340Z,17.31
2022-08-21T23:20:57.694Z,17.35
2022-08-21T23:23:25.571Z,17.36
2022-08-21T23:25:53.110Z,17.33
2022-08-21T23:28:19.337Z,17.36
2022-08-21T23:30:46.335Z,17.31
2022-08-21T23:33:12.488Z,17.31
2022-08-21T23:35:38.649Z,17.31
2022-08-21T23:38:09.311Z,17.37
2022-08-21T23:40:35.704Z,17.37
2022-08-21T23:48:34.223Z,17.60
2022-08-21T23:51:01.421Z,17.69
2022-08-21T23:53:27.567Z,17.74
2022-08-21T23:55:55.459Z,17.84
2022-08-21T23:58:21.752Z,17.95
